Time;durP1;ratioP1;P1;durP2;ratioP2;P2;SDS_P1;SDS_P2;PMS_P1;PMS_P2;Temp;Humidity;BMP_temperature;BMP_pressure;BME280_temperature;BME280_humidity;BME280_pressure;Samples;Min_cycle;Max_cycle;Signal;HPM_P1;HPM_P2
2022/02/26 00:01:45;;;;;;;6.63;3.43;;;4.70;99.90;;;;;;5075474;28;20183;-68
2022/02/26 00:04:11;;;;;;;4.50;3.40;;;4.70;99.90;;;;;;5078209;28;20211;-69
2022/02/26 00:06:37;;;;;;;8.93;3.77;;;4.70;99.90;;;;;;5074737;28;20462;-67
2022/02/26 00:09:06;;;;;;;7.27;3.27;;;4.80;99.90;;;;;;5078316;28;20468;-68
2022/02/26 00:11:33;;;;;;;5.83;3.80;;;4.70;99.90;;;;;;5073655;28;20190;-66
2022/02/26 00:13:59;;;;;;;5.57;4.40;;;4.70;99.90;;;;;;5076062;28;20471;-67
2022/02/26 00:16:24;;;;;;;5.53;3.53;;;4.60;99.90;;;;;;5070807;28;20519;-67
2022/02/26 00:18:50;;;;;;;4.43;3.70;;;4.60;99.90;;;;;;5076239;28;20210;-67
2022/02/26 00:21:16;;;;;;;5.60;3.77;;;4.60;99.90;;;;;;5074755;28;20478;-67
2022/02/26 00:23:43;;;;;;;7.57;4.37;;;4.60;99.90;;;;;;5073522;28;20183;-68
2022/02/26 00:26:09;;;;;;;6.00;3.77;;;4.50;99.90;;;;;;5073185;28;20276;-67
2022/02/26 00:28:35;;;;;;;7.73;4.60;;;4.50;99.90;;;;;;5073605;28;20427;-68
2022/02/26 00:31:00;;;;;;;5.90;4.03;;;4.50;99.90;;;;;;5074096;28;20970;-68
2022/02/26 00:33:26;;;;;;;4.67;4.00;;;4.60;99.90;;;;;;5073320;28;20288;-68
2022/02/26 00:35:52;;;;;;;6.83;4.10;;;4.60;99.90;;;;;;5075268;28;20194;-70
2022/02/26 00:38:18;;;;;;;4.60;3.60;;;4.60;99.90;;;;;;5075306;28;20237;-68
2022/02/26 00:40:44;;;;;;;6.40;4.20;;;4.70;99.90;;;;;;5076086;28;20556;-68
2022/02/26 00:43:09;;;;;;;8.87;4.87;;;4.70;99.90;;;;;;5076170;28;20216;-67
2022/02/26 00:45:35;;;;;;;6.37;3.83;;;4.70;99.90;;;;;;5075313;28;20183;-66
2022/02/26 00:48:00;;;;;;;6.10;3.93;;;4.70;99.90;;;;;;5074522;28;20188;-67
2022/02/26 00:50:26;;;;;;;9.40;4.40;;;4.70;99.90;;;;;;5076305;28;20679;-68
2022/02/26 00:52:54;;;;;;;7.77;4.80;;;4.70;99.90;;;;;;5074211;28;20190;-67
2022/02/26 00:55:22;;;;;;;9.17;4.40;;;4.70;99.90;;;;;;5075086;28;20183;-68
2022/02/26 00:57:47;;;;;;;8.93;4.80;;;4.60;99.90;;;;;;5076703;28;20457;-69
2022/02/26 01:00:13;;;;;;;7.40;4.63;;;4.50;99.90;;;;;;5075321;28;20464;-68
2022/02/26 01:02:39;;;;;;;6.90;4.43;;;4.60;99.90;;;;;;5074782;28;20183;-69
2022/02/26 01:05:05;;;;;;;7.80;5.20;;;4.50;99.90;;;;;;5073761;28;20186;-69
2022/02/26 01:07:31;;;;;;;6.27;5.00;;;4.50;99.90;;;;;;5074926;28;20202;-68
2022/02/26 01:09:56;;;;;;;6.00;4.10;;;4.40;99.90;;;;;;5077161;28;20912;-68
2022/02/26 01:12:22;;;;;;;7.40;4.90;;;4.50;99.90;;;;;;5075934;28;20437;-69
2022/02/26 01:14:48;;;;;;;7.43;5.43;;;4.40;99.90;;;;;;5074098;28;20332;-69
2022/02/26 01:17:16;;;;;;;8.73;4.93;;;4.40;99.90;;;;;;5074565;28;20206;-70
2022/02/26 01:19:43;;;;;;;7.83;5.07;;;4.50;99.90;;;;;;5076647;28;20202;-68
2022/02/26 01:22:09;;;;;;;7.50;5.30;;;4.40;99.90;;;;;;5075609;28;20445;-68
2022/02/26 01:24:35;;;;;;;9.00;4.87;;;4.50;99.90;;;;;;5073155;28;20429;-69
2022/02/26 01:27:02;;;;;;;7.60;4.37;;;4.50;99.90;;;;;;5075160;28;20473;-69
2022/02/26 01:29:28;;;;;;;6.10;5.23;;;4.50;99.90;;;;;;5075202;28;20441;-69
2022/02/26 01:31:54;;;;;;;8.70;5.30;;;4.40;99.90;;;;;;5072430;28;20428;-69
2022/02/26 01:34:20;;;;;;;6.87;5.13;;;4.30;99.90;;;;;;5074122;28;20424;-68
2022/02/26 01:36:45;;;;;;;8.03;4.90;;;4.30;99.90;;;;;;5074282;28;20429;-69
2022/02/26 01:39:11;;;;;;;7.97;5.27;;;4.30;99.90;;;;;;5075269;28;20210;-68
2022/02/26 01:41:38;;;;;;;8.40;4.77;;;4.40;99.90;;;;;;5074616;28;20290;-68
2022/02/26 01:44:05;;;;;;;8.20;5.27;;;4.50;99.90;;;;;;5073699;28;20742;-69
2022/02/26 01:46:30;;;;;;;7.20;5.07;;;4.40;99.90;;;;;;5073031;28;20422;-68
2022/02/26 01:48:56;;;;;;;8.00;4.77;;;4.40;99.90;;;;;;5072757;28;20512;-68
2022/02/26 01:51:22;;;;;;;6.93;5.43;;;4.50;99.90;;;;;;5071835;28;20225;-68
2022/02/26 01:53:48;;;;;;;7.37;4.83;;;4.50;99.90;;;;;;5076109;28;20174;-68
2022/02/26 01:56:14;;;;;;;7.93;5.10;;;4.60;99.90;;;;;;5076429;28;20939;-67
2022/02/26 01:58:41;;;;;;;7.63;5.53;;;4.60;99.90;;;;;;5077539;28;20680;-68
2022/02/26 02:01:07;;;;;;;8.40;5.07;;;4.60;99.90;;;;;;5079427;28;20633;-68
2022/02/26 02:03:36;;;;;;;5.73;4.63;;;4.50;99.90;;;;;;5077505;28;20429;-68
2022/02/26 02:06:03;;;;;;;10.57;6.43;;;4.70;99.90;;;;;;5079334;28;20436;-68
2022/02/26 02:08:29;;;;;;;7.03;4.90;;;4.80;99.90;;;;;;5077833;28;20445;-69
2022/02/26 02:10:56;;;;;;;6.83;5.20;;;4.80;99.90;;;;;;5079417;28;20433;-68
2022/02/26 02:13:22;;;;;;;8.23;5.60;;;4.70;99.90;;;;;;5075119;28;20523;-68
2022/02/26 02:15:48;;;;;;;7.10;5.10;;;4.60;99.90;;;;;;5076624;28;20948;-68
2022/02/26 02:18:15;;;;;;;6.97;5.00;;;4.60;99.90;;;;;;5076951;28;21137;-67
2022/02/26 02:20:42;;;;;;;7.23;5.17;;;4.50;99.90;;;;;;5079236;28;20452;-68
2022/02/26 02:23:08;;;;;;;8.37;5.50;;;4.60;99.90;;;;;;5077327;28;20539;-67
2022/02/26 02:25:36;;;;;;;9.13;5.87;;;4.50;99.90;;;;;;5078415;28;20515;-68
2022/02/26 02:28:03;;;;;;;7.60;4.90;;;4.70;99.90;;;;;;5076971;28;20671;-67
2022/02/26 02:30:29;;;;;;;7.83;5.67;;;4.70;99.90;;;;;;5076772;28;20560;-67
2022/02/26 02:32:57;;;;;;;10.80;4.80;;;4.70;99.90;;;;;;5079534;28;20429;-67
2022/02/26 02:35:30;;;;;;;8.70;5.63;;;4.50;99.90;;;;;;5077207;28;20425;-67
2022/02/26 02:37:57;;;;;;;6.53;5.40;;;4.60;99.90;;;;;;5077068;28;20529;-68
2022/02/26 02:40:24;;;;;;;8.43;5.23;;;4.60;99.90;;;;;;5076783;28;20444;-67
2022/02/26 02:42:53;;;;;;;7.67;5.60;;;4.60;99.90;;;;;;5075824;28;20425;-68
2022/02/26 02:45:19;;;;;;;7.80;5.33;;;4.40;99.90;;;;;;5078406;28;20425;-67
2022/02/26 02:47:46;;;;;;;9.30;5.43;;;4.40;99.90;;;;;;5078362;28;20445;-67
2022/02/26 02:50:12;;;;;;;6.93;5.10;;;4.40;99.90;;;;;;5078495;28;20817;-69
2022/02/26 02:52:37;;;;;;;8.03;5.90;;;4.40;99.90;;;;;;5082844;28;20835;-69
2022/02/26 02:55:04;;;;;;;9.27;5.83;;;4.40;99.90;;;;;;5077157;28;20524;-67
2022/02/26 02:57:30;;;;;;;7.00;6.30;;;4.50;99.90;;;;;;5074775;28;20203;-69
2022/02/26 02:59:55;;;;;;;9.23;6.40;;;4.40;99.90;;;;;;5076432;28;20456;-69
2022/02/26 03:02:21;;;;;;;9.87;5.77;;;4.40;99.90;;;;;;5075615;28;20181;-67
2022/02/26 03:04:46;;;;;;;8.27;6.80;;;4.30;99.90;;;;;;5076420;28;20258;-69
2022/02/26 03:07:12;;;;;;;9.60;6.20;;;4.40;99.90;;;;;;5076152;28;20735;-69
2022/02/26 03:09:38;;;;;;;10.57;6.10;;;4.60;99.90;;;;;;5079546;28;20214;-68
2022/02/26 03:12:04;;;;;;;10.07;6.43;;;4.50;99.90;;;;;;5078465;28;20254;-69
2022/02/26 03:14:29;;;;;;;7.17;5.77;;;4.50;99.90;;;;;;5076371;28;20194;-69
2022/02/26 03:16:55;;;;;;;8.47;6.30;;;4.40;99.90;;;;;;5078685;28;20448;-69
2022/02/26 03:19:21;;;;;;;11.23;6.37;;;4.20;99.90;;;;;;5075173;28;20232;-67
2022/02/26 03:21:47;;;;;;;11.70;6.40;;;4.20;99.90;;;;;;5080079;28;20224;-66
2022/02/26 03:24:13;;;;;;;11.00;8.10;;;4.10;99.90;;;;;;5074415;28;20441;-67
2022/02/26 03:26:39;;;;;;;11.37;6.37;;;4.10;99.90;;;;;;5076102;28;20537;-67
2022/02/26 03:29:07;;;;;;;12.67;7.80;;;4.00;99.90;;;;;;5076697;28;20237;-67
2022/02/26 03:31:33;;;;;;;10.73;6.40;;;4.00;99.90;;;;;;5075733;28;20460;-67
2022/02/26 03:33:59;;;;;;;11.13;8.30;;;4.00;99.90;;;;;;5074384;28;20479;-69
2022/02/26 03:36:27;;;;;;;9.40;7.53;;;4.00;99.90;;;;;;5076328;28;20436;-69
2022/02/26 03:38:53;;;;;;;9.93;7.77;;;4.00;99.90;;;;;;5074372;28;20230;-68
2022/02/26 03:41:19;;;;;;;12.47;8.60;;;3.80;99.90;;;;;;5075176;28;20464;-69
2022/02/26 03:43:46;;;;;;;16.07;8.70;;;3.70;99.90;;;;;;5078216;28;20417;-69
2022/02/26 03:46:12;;;;;;;11.57;8.37;;;3.70;99.90;;;;;;5075026;28;20210;-68
2022/02/26 03:48:37;;;;;;;13.73;8.67;;;3.70;99.90;;;;;;5079056;28;20501;-68
2022/02/26 03:51:05;;;;;;;13.20;8.77;;;3.70;99.90;;;;;;5075836;28;20976;-67
2022/02/26 03:53:32;;;;;;;10.97;9.87;;;3.70;99.90;;;;;;5074886;28;20562;-66
2022/02/26 03:55:59;;;;;;;14.20;10.23;;;3.70;99.90;;;;;;5075593;28;20434;-67
2022/02/26 03:58:24;;;;;;;13.43;9.63;;;3.70;99.90;;;;;;5073721;28;20463;-67
2022/02/26 04:00:50;;;;;;;11.93;9.33;;;3.60;99.90;;;;;;5073536;28;20440;-68
2022/02/26 04:03:16;;;;;;;16.77;10.50;;;3.70;99.90;;;;;;5071093;28;21122;-68
2022/02/26 04:05:42;;;;;;;12.43;10.50;;;3.70;99.90;;;;;;5075602;28;20178;-68
2022/02/26 04:08:07;;;;;;;13.77;10.70;;;3.90;99.90;;;;;;5074062;28;20429;-68
2022/02/26 04:10:33;;;;;;;22.43;10.80;;;3.90;99.90;;;;;;5073400;28;20464;-67
2022/02/26 04:12:59;;;;;;;12.67;9.87;;;3.90;99.90;;;;;;5073128;28;20262;-68
2022/02/26 04:15:24;;;;;;;15.87;10.53;;;3.90;99.90;;;;;;5072345;28;20188;-67
2022/02/26 04:17:50;;;;;;;14.07;10.10;;;3.90;99.90;;;;;;5068497;28;20249;-68
2022/02/26 04:20:15;;;;;;;16.33;10.80;;;3.80;99.90;;;;;;5074248;28;20274;-68
2022/02/26 04:22:41;;;;;;;15.80;10.57;;;3.90;99.90;;;;;;5077900;28;20174;-67
2022/02/26 04:25:07;;;;;;;15.73;11.43;;;3.90;99.90;;;;;;5075995;28;20186;-67
2022/02/26 04:27:33;;;;;;;17.13;11.20;;;3.80;99.90;;;;;;5071801;28;20315;-67
2022/02/26 04:29:59;;;;;;;16.07;11.53;;;3.70;99.90;;;;;;5072965;28;20539;-67
2022/02/26 04:32:25;;;;;;;15.23;10.30;;;3.80;99.90;;;;;;5074235;28;20183;-67
2022/02/26 04:34:50;;;;;;;15.90;12.23;;;3.90;99.90;;;;;;5074358;28;20981;-68
2022/02/26 04:37:20;;;;;;;13.53;10.43;;;3.90;99.90;;;;;;5073596;28;20190;-68
2022/02/26 04:39:50;;;;;;;13.80;10.80;;;3.80;99.90;;;;;;5073147;28;20583;-68
2022/02/26 04:42:16;;;;;;;16.47;12.33;;;3.70;99.90;;;;;;5070691;28;20843;-68
2022/02/26 04:44:44;;;;;;;18.23;13.47;;;3.70;99.90;;;;;;5074562;28;20417;-67
2022/02/26 04:47:13;;;;;;;21.90;13.63;;;3.70;99.90;;;;;;5069489;28;20926;-67
2022/02/26 04:49:39;;;;;;;22.43;13.63;;;3.60;99.90;;;;;;5072824;28;21058;-67
2022/02/26 04:52:05;;;;;;;14.93;11.90;;;3.70;99.90;;;;;;5074039;28;20478;-67
2022/02/26 04:54:31;;;;;;;16.50;12.07;;;3.70;99.90;;;;;;5074648;28;20807;-67
2022/02/26 04:56:56;;;;;;;18.53;13.10;;;3.60;99.90;;;;;;5073442;28;20431;-67
2022/02/26 04:59:22;;;;;;;27.53;14.57;;;3.60;99.90;;;;;;5073605;28;20218;-67
2022/02/26 05:01:48;;;;;;;18.27;12.27;;;3.60;99.90;;;;;;5076472;28;20221;-67
2022/02/26 05:04:13;;;;;;;18.23;12.90;;;3.70;99.90;;;;;;5071767;28;20220;-66
2022/02/26 05:06:39;;;;;;;17.03;12.30;;;3.70;99.90;;;;;;5073607;28;20191;-67
2022/02/26 05:09:04;;;;;;;18.57;13.10;;;3.50;99.90;;;;;;5074225;28;20215;-67
2022/02/26 05:11:30;;;;;;;19.90;13.67;;;3.60;99.90;;;;;;5075191;28;20202;-67
2022/02/26 05:13:56;;;;;;;24.17;15.17;;;3.50;99.90;;;;;;5072494;28;20676;-66
2022/02/26 05:16:21;;;;;;;20.73;13.07;;;3.50;99.90;;;;;;5073047;28;20623;-67
2022/02/26 05:18:47;;;;;;;22.77;14.20;;;3.60;99.90;;;;;;5075067;28;20273;-67
2022/02/26 05:21:12;;;;;;;22.37;14.73;;;3.60;99.90;;;;;;5075092;28;20183;-67
2022/02/26 05:23:41;;;;;;;22.13;14.50;;;3.40;99.90;;;;;;5074265;28;20658;-67
2022/02/26 05:26:09;;;;;;;21.27;13.63;;;3.50;99.90;;;;;;5076302;28;20739;-70
2022/02/26 05:28:35;;;;;;;18.30;13.60;;;3.60;99.90;;;;;;5076261;28;20520;-67
2022/02/26 05:31:00;;;;;;;17.80;12.37;;;3.50;99.90;;;;;;5076323;28;20514;-67
2022/02/26 05:33:26;;;;;;;18.57;13.23;;;3.40;99.90;;;;;;5076019;28;20672;-67
2022/02/26 05:35:51;;;;;;;18.83;14.80;;;3.30;99.90;;;;;;5077912;28;20191;-67
2022/02/26 05:38:17;;;;;;;22.97;15.03;;;3.30;99.90;;;;;;5077154;28;20202;-67
2022/02/26 05:40:43;;;;;;;20.40;14.17;;;3.30;99.90;;;;;;5075174;28;20198;-68
2022/02/26 05:43:08;;;;;;;21.37;15.27;;;3.30;99.90;;;;;;5076196;28;20277;-66
2022/02/26 05:45:34;;;;;;;18.40;14.03;;;3.40;99.90;;;;;;5078147;28;20258;-67
2022/02/26 05:48:00;;;;;;;24.90;14.70;;;3.60;99.90;;;;;;5075738;28;20254;-68
2022/02/26 05:50:25;;;;;;;18.83;13.83;;;3.60;99.90;;;;;;5078849;28;20517;-67
2022/02/26 05:52:51;;;;;;;21.10;13.87;;;3.50;99.90;;;;;;5075503;28;20425;-68
2022/02/26 05:55:17;;;;;;;20.57;14.57;;;3.50;99.90;;;;;;5076325;28;20746;-67
2022/02/26 05:57:42;;;;;;;21.53;14.40;;;3.50;99.90;;;;;;5078648;28;20202;-68
2022/02/26 06:00:09;;;;;;;26.53;15.17;;;3.50;99.90;;;;;;5078508;28;20274;-67
2022/02/26 06:02:35;;;;;;;17.97;13.30;;;3.70;99.90;;;;;;5073580;28;20186;-68
2022/02/26 06:05:02;;;;;;;21.30;14.43;;;3.60;99.90;;;;;;5076849;28;20452;-67
2022/02/26 06:07:31;;;;;;;19.87;13.93;;;3.60;99.90;;;;;;5076712;28;20427;-68
2022/02/26 06:09:57;;;;;;;21.50;14.20;;;3.60;99.90;;;;;;5078701;28;20227;-67
2022/02/26 06:12:23;;;;;;;21.87;13.60;;;3.60;99.90;;;;;;5076593;28;20436;-66
2022/02/26 06:14:49;;;;;;;20.07;13.10;;;3.40;99.90;;;;;;5076302;28;20493;-67
2022/02/26 06:17:14;;;;;;;32.33;15.80;;;3.30;99.90;;;;;;5075952;28;20430;-67
2022/02/26 06:19:40;;;;;;;27.17;16.27;;;3.60;99.90;;;;;;5077459;28;20301;-67
2022/02/26 06:22:05;;;;;;;18.07;13.20;;;3.60;99.90;;;;;;5076329;28;20182;-67
2022/02/26 06:24:31;;;;;;;28.53;14.47;;;3.60;99.90;;;;;;5079130;28;20274;-67
2022/02/26 06:26:57;;;;;;;21.23;14.83;;;3.70;99.90;;;;;;5074212;28;20573;-67
2022/02/26 06:29:23;;;;;;;20.50;14.83;;;3.50;99.90;;;;;;5074618;28;20291;-69
2022/02/26 06:31:48;;;;;;;21.47;15.50;;;3.40;99.90;;;;;;5077033;28;20534;-68
2022/02/26 06:34:14;;;;;;;20.37;14.70;;;3.30;99.90;;;;;;5072735;28;20519;-69
2022/02/26 06:36:39;;;;;;;27.10;17.30;;;3.50;99.90;;;;;;5073736;28;20195;-68
2022/02/26 06:39:05;;;;;;;22.60;15.60;;;3.50;99.90;;;;;;5074653;28;20593;-66
2022/02/26 06:41:31;;;;;;;21.87;15.17;;;3.60;99.90;;;;;;5071733;28;20209;-68
2022/02/26 06:43:57;;;;;;;30.00;16.17;;;3.60;99.90;;;;;;5070388;28;20786;-68
2022/02/26 06:46:23;;;;;;;23.53;14.87;;;3.40;99.90;;;;;;5077838;28;20651;-67
2022/02/26 06:48:49;;;;;;;24.03;15.67;;;3.60;99.90;;;;;;5073264;28;20510;-67
2022/02/26 06:51:15;;;;;;;23.77;14.87;;;3.60;99.90;;;;;;5078550;28;20440;-67
2022/02/26 06:53:41;;;;;;;25.40;15.20;;;3.50;99.90;;;;;;5074999;28;20282;-69
2022/02/26 06:56:06;;;;;;;21.23;14.37;;;3.80;99.90;;;;;;5071381;28;20600;-66
2022/02/26 06:58:32;;;;;;;28.13;15.03;;;3.90;99.90;;;;;;5075595;28;20203;-67
2022/02/26 07:00:59;;;;;;;19.80;13.83;;;4.10;99.90;;;;;;5071052;28;20429;-67
2022/02/26 07:03:25;;;;;;;20.90;15.07;;;4.10;99.90;;;;;;5073006;28;20449;-68
2022/02/26 07:05:51;;;;;;;28.77;15.83;;;4.10;99.90;;;;;;5073483;28;20461;-67
2022/02/26 07:08:17;;;;;;;26.00;14.17;;;4.10;99.90;;;;;;5073190;28;20495;-67
2022/02/26 07:10:42;;;;;;;19.67;13.20;;;4.00;99.90;;;;;;5075388;28;20479;-68
2022/02/26 07:13:08;;;;;;;17.60;13.83;;;4.10;99.90;;;;;;5076356;28;20436;-67
2022/02/26 07:15:35;;;;;;;23.60;14.37;;;3.80;99.90;;;;;;5073056;28;20472;-67
2022/02/26 07:18:01;;;;;;;28.80;16.27;;;4.00;99.90;;;;;;5074988;28;20533;-68
2022/02/26 07:20:27;;;;;;;23.63;13.60;;;4.00;99.90;;;;;;5074850;28;20549;-68
2022/02/26 07:22:53;;;;;;;21.73;13.87;;;4.00;99.90;;;;;;5075811;28;20443;-67
2022/02/26 07:25:19;;;;;;;19.23;13.10;;;4.10;99.90;;;;;;5073811;28;20441;-67
2022/02/26 07:27:44;;;;;;;19.47;14.20;;;4.00;99.90;;;;;;5070295;28;20194;-67
2022/02/26 07:30:10;;;;;;;24.20;14.73;;;3.90;99.90;;;;;;5074831;28;20262;-67
2022/02/26 07:32:36;;;;;;;21.27;13.77;;;4.00;99.90;;;;;;5076279;28;20194;-68
2022/02/26 07:35:04;;;;;;;23.17;15.30;;;4.10;99.90;;;;;;5076576;28;20428;-67
2022/02/26 07:37:30;;;;;;;21.87;15.40;;;4.20;99.90;;;;;;5076185;28;20475;-68
2022/02/26 07:39:55;;;;;;;21.23;15.10;;;4.20;99.90;;;;;;5072107;28;20449;-68
2022/02/26 07:42:21;;;;;;;23.47;14.30;;;4.20;99.90;;;;;;5077049;28;20430;-68
2022/02/26 07:44:47;;;;;;;22.27;15.07;;;4.20;99.90;;;;;;5075400;28;20217;-68
2022/02/26 07:47:13;;;;;;;21.40;15.23;;;4.10;99.90;;;;;;5074822;28;20724;-69
2022/02/26 07:49:38;;;;;;;24.33;14.53;;;4.20;99.90;;;;;;5073277;28;20207;-68
2022/02/26 07:52:04;;;;;;;20.63;15.23;;;4.10;99.90;;;;;;5072898;28;20710;-69
2022/02/26 07:54:30;;;;;;;21.83;15.43;;;4.10;99.90;;;;;;5075304;28;20190;-68
2022/02/26 07:56:55;;;;;;;22.73;16.23;;;4.30;99.90;;;;;;5074335;28;21231;-68
2022/02/26 07:59:21;;;;;;;23.83;14.27;;;4.50;99.90;;;;;;5074130;28;20269;-68
2022/02/26 08:01:47;;;;;;;19.53;14.83;;;4.50;99.90;;;;;;5076157;28;20175;-68
2022/02/26 08:04:12;;;;;;;21.73;16.40;;;4.30;99.90;;;;;;5078067;28;20482;-68
2022/02/26 08:06:38;;;;;;;20.97;14.40;;;4.20;99.90;;;;;;5073826;28;20723;-67
2022/02/26 08:09:04;;;;;;;19.37;14.80;;;4.40;99.90;;;;;;5073837;28;20214;-68
2022/02/26 08:11:31;;;;;;;21.40;15.90;;;4.40;99.90;;;;;;5075590;28;20196;-69
2022/02/26 08:13:57;;;;;;;22.90;15.20;;;4.50;99.90;;;;;;5075854;28;20191;-68
2022/02/26 08:16:25;;;;;;;18.77;14.63;;;4.30;99.90;;;;;;5074800;28;20432;-68
2022/02/26 08:18:50;;;;;;;73.03;45.23;;;4.40;99.90;;;;;;5070988;28;20711;-69
2022/02/26 08:21:16;;;;;;;25.73;16.30;;;4.60;99.90;;;;;;5072595;28;20483;-69
2022/02/26 08:23:42;;;;;;;20.90;14.43;;;4.70;99.90;;;;;;5074872;28;20638;-68
2022/02/26 08:26:07;;;;;;;23.20;14.00;;;4.80;99.90;;;;;;5070025;28;20183;-68
2022/02/26 08:28:33;;;;;;;22.30;14.20;;;5.10;99.90;;;;;;5071648;28;20186;-68
2022/02/26 08:30:59;;;;;;;19.70;14.20;;;5.40;99.90;;;;;;5072337;28;20204;-68
2022/02/26 08:33:24;;;;;;;19.53;12.70;;;5.40;99.90;;;;;;5071889;28;20186;-68
2022/02/26 08:35:50;;;;;;;25.00;14.13;;;5.40;99.90;;;;;;5073273;28;20538;-69
2022/02/26 08:38:15;;;;;;;19.10;12.43;;;5.40;99.90;;;;;;5069923;28;20616;-68
2022/02/26 08:40:41;;;;;;;16.87;12.30;;;5.50;99.90;;;;;;5071012;28;20213;-68
2022/02/26 08:43:07;;;;;;;17.97;12.23;;;5.60;99.90;;;;;;5069974;28;20195;-67
2022/02/26 08:45:32;;;;;;;23.67;11.00;;;5.60;99.90;;;;;;5068772;28;20174;-67
2022/02/26 08:47:58;;;;;;;23.73;13.70;;;5.50;99.90;;;;;;5068643;28;20290;-67
2022/02/26 08:50:23;;;;;;;22.83;13.17;;;5.80;99.90;;;;;;5066348;28;20210;-67
2022/02/26 08:52:49;;;;;;;21.60;13.03;;;6.00;99.90;;;;;;5067745;28;20186;-67
2022/02/26 08:55:15;;;;;;;17.20;12.20;;;6.10;99.90;;;;;;5068410;28;20186;-68
2022/02/26 08:57:41;;;;;;;18.47;12.07;;;6.30;99.90;;;;;;5068331;28;20217;-70
2022/02/26 09:00:09;;;;;;;17.10;12.50;;;6.40;99.90;;;;;;5063924;28;20281;-66
2022/02/26 09:02:35;;;;;;;14.83;11.70;;;6.20;99.90;;;;;;5066071;28;20197;-67
2022/02/26 09:05:00;;;;;;;20.37;12.47;;;6.30;99.90;;;;;;5076117;28;20433;-66
2022/02/26 09:07:27;;;;;;;20.03;12.90;;;6.20;99.90;;;;;;5075096;28;20194;-67
2022/02/26 09:09:52;;;;;;;17.97;13.40;;;6.30;99.90;;;;;;5077500;28;20218;-67
2022/02/26 09:12:18;;;;;;;13.80;10.27;;;6.50;99.90;;;;;;5081817;28;20985;-66
2022/02/26 09:14:44;;;;;;;18.97;8.63;;;6.50;99.90;;;;;;5078002;28;20178;-67
2022/02/26 09:17:09;;;;;;;14.70;8.83;;;6.50;99.90;;;;;;5075695;28;20212;-67
2022/02/26 09:19:36;;;;;;;16.47;8.53;;;6.50;99.90;;;;;;5076649;28;20215;-67
2022/02/26 09:22:04;;;;;;;19.60;8.40;;;6.50;99.90;;;;;;5076238;28;20288;-66
2022/02/26 09:24:31;;;;;;;14.27;11.20;;;6.60;99.90;;;;;;5078345;28;20953;-67
2022/02/26 09:26:57;;;;;;;18.60;8.07;;;6.50;99.90;;;;;;5074694;28;21729;-67
2022/02/26 09:29:23;;;;;;;12.60;7.80;;;6.60;99.90;;;;;;5079234;28;20465;-67
2022/02/26 09:31:50;;;;;;;15.80;8.00;;;6.70;99.90;;;;;;5074575;28;20951;-66
2022/02/26 09:34:18;;;;;;;24.57;8.40;;;6.50;99.90;;;;;;5074827;28;20199;-68
2022/02/26 09:36:45;;;;;;;17.47;9.00;;;6.60;99.90;;;;;;5073205;28;20448;-66
2022/02/26 09:39:11;;;;;;;15.30;9.97;;;6.70;99.90;;;;;;5079453;28;20499;-68
2022/02/26 09:41:37;;;;;;;17.90;8.13;;;6.70;99.90;;;;;;5075293;28;20440;-66
2022/02/26 09:44:04;;;;;;;14.90;7.73;;;6.80;99.90;;;;;;5077001;28;20189;-66
2022/02/26 09:46:30;;;;;;;13.67;8.80;;;7.00;99.90;;;;;;5075762;28;20463;-66
2022/02/26 09:48:55;;;;;;;16.30;8.03;;;6.80;99.90;;;;;;5074688;28;20976;-66
2022/02/26 09:51:22;;;;;;;14.90;8.07;;;6.60;99.90;;;;;;5076980;28;20668;-66
2022/02/26 09:53:49;;;;;;;15.87;8.40;;;6.70;99.90;;;;;;5075190;28;20186;-66
2022/02/26 09:56:15;;;;;;;13.50;8.37;;;6.90;99.90;;;;;;5076613;28;20452;-67
2022/02/26 09:58:40;;;;;;;15.60;7.10;;;6.80;99.90;;;;;;5078892;28;20500;-67
2022/02/26 10:01:07;;;;;;;15.60;7.27;;;6.80;99.90;;;;;;5077877;28;20632;-67
2022/02/26 10:03:37;;;;;;;13.83;7.57;;;6.90;99.90;;;;;;5074016;28;20470;-67
2022/02/26 10:06:17;;;;;;;20.37;7.87;;;7.00;99.90;;;;;;5074855;28;20454;-67
2022/02/26 10:08:51;;;;;;;12.10;6.70;;;7.10;99.90;;;;;;5075883;28;20460;-67
2022/02/26 10:11:23;;;;;;;8.90;6.20;;;7.20;99.90;;;;;;5077866;28;20454;-67
2022/02/26 10:13:50;;;;;;;13.07;5.80;;;7.10;99.90;;;;;;5075076;28;20471;-67
2022/02/26 10:16:15;;;;;;;13.60;5.13;;;7.20;99.90;;;;;;5075595;28;20441;-67
2022/02/26 10:18:53;;;;;;;11.43;4.10;;;7.30;99.90;;;;;;5071932;28;20479;-66
2022/02/26 10:21:30;;;;;;;8.23;5.50;;;7.30;99.90;;;;;;5075562;28;20228;-67
2022/02/26 10:23:56;;;;;;;8.63;4.17;;;7.40;99.90;;;;;;5076825;28;20436;-67
2022/02/26 10:26:27;;;;;;;9.87;4.00;;;7.30;99.90;;;;;;5076203;28;20447;-66
2022/02/26 10:29:12;;;;;;;7.70;4.00;;;7.30;99.90;;;;;;5076054;28;20211;-67
2022/02/26 10:32:05;;;;;;;10.13;4.30;;;7.50;99.90;;;;;;5074987;28;20998;-67
2022/02/26 10:34:34;;;;;;;14.17;4.40;;;7.50;99.90;;;;;;5074810;28;20448;-66
2022/02/26 10:37:01;;;;;;;13.40;5.13;;;7.50;99.90;;;;;;5076226;28;20440;-67
2022/02/26 10:39:50;;;;;;;10.93;4.60;;;7.70;99.90;;;;;;5072459;28;20551;-68
2022/02/26 10:42:18;;;;;;;10.53;4.33;;;7.90;99.90;;;;;;5072089;28;20524;-67
2022/02/26 10:44:45;;;;;;;7.40;4.60;;;7.90;99.90;;;;;;5070068;28;20475;-67
2022/02/26 10:47:15;;;;;;;10.70;5.10;;;8.00;99.90;;;;;;5069954;28;20437;-67
2022/02/26 10:49:46;;;;;;;6.93;3.57;;;7.90;99.90;;;;;;5076232;28;20452;-67
2022/02/26 10:52:14;;;;;;;13.00;4.93;;;7.90;99.90;;;;;;5074058;28;20502;-67
2022/02/26 10:54:41;;;;;;;10.70;3.93;;;8.10;99.90;;;;;;5072616;28;20495;-67
2022/02/26 10:57:11;;;;;;;6.00;3.90;;;8.20;99.90;;;;;;5072465;28;20922;-67
2022/02/26 10:59:42;;;;;;;9.87;5.00;;;8.30;99.90;;;;;;5075768;28;20939;-67
2022/02/26 11:02:18;;;;;;;7.43;4.27;;;8.40;99.90;;;;;;5072420;28;20432;-67
2022/02/26 11:04:44;;;;;;;6.63;4.03;;;8.30;99.90;;;;;;5071560;28;20440;-67
2022/02/26 11:07:10;;;;;;;8.77;3.90;;;8.30;99.90;;;;;;5074137;28;20444;-67
2022/02/26 11:09:40;;;;;;;9.17;4.57;;;8.50;99.90;;;;;;5071787;28;20242;-68
2022/02/26 11:12:07;;;;;;;13.03;4.67;;;8.60;99.90;;;;;;5076650;28;20428;-65
2022/02/26 11:14:35;;;;;;;10.00;4.20;;;8.80;99.90;;;;;;5072374;28;20433;-67
2022/02/26 11:17:03;;;;;;;14.17;4.87;;;8.90;99.90;;;;;;5072586;28;20537;-65
2022/02/26 11:19:30;;;;;;;6.80;4.67;;;8.90;99.90;;;;;;5073303;28;20452;-66
2022/02/26 11:21:59;;;;;;;8.27;6.13;;;8.80;99.90;;;;;;5074193;28;20512;-65
2022/02/26 11:24:25;;;;;;;10.60;4.90;;;8.80;99.90;;;;;;5074441;28;20448;-66
2022/02/26 11:26:51;;;;;;;14.73;5.47;;;8.90;99.90;;;;;;5073461;28;20426;-66
2022/02/26 11:29:20;;;;;;;15.90;5.37;;;9.00;99.90;;;;;;5075839;28;20468;-66
2022/02/26 11:31:52;;;;;;;10.60;4.90;;;9.00;99.90;;;;;;5076120;28;20179;-66
2022/02/26 11:34:37;;;;;;;9.67;4.23;;;9.00;99.90;;;;;;5074459;28;20432;-67
2022/02/26 11:37:04;;;;;;;10.50;4.70;;;9.00;99.90;;;;;;5075988;28;20428;-67
2022/02/26 11:39:36;;;;;;;7.10;5.00;;;9.20;99.90;;;;;;5077047;28;20461;-66
2022/02/26 11:42:23;;;;;;;8.57;3.73;;;9.20;99.90;;;;;;5078976;28;20429;-67
2022/02/26 11:45:12;;;;;;;11.80;3.87;;;9.30;99.90;;;;;;5076868;28;20790;-66
2022/02/26 11:47:57;;;;;;;5.33;3.40;;;9.40;99.90;;;;;;5075701;28;20429;-66
2022/02/26 11:50:25;;;;;;;8.20;3.67;;;9.40;99.90;;;;;;5073727;28;20556;-66
2022/02/26 11:52:54;;;;;;;12.20;4.00;;;9.40;99.90;;;;;;5077327;28;20479;-67
2022/02/26 11:55:28;;;;;;;6.73;3.03;;;9.60;99.90;;;;;;5074868;28;20642;-66
2022/02/26 11:57:57;;;;;;;21.37;4.33;;;9.70;99.90;;;;;;5074665;28;20443;-66
2022/02/26 12:00:24;;;;;;;9.03;4.03;;;9.50;99.90;;;;;;5077904;28;20868;-65
2022/02/26 12:03:19;;;;;;;10.67;3.70;;;9.60;99.90;;;;;;5077175;28;20658;-66
2022/02/26 12:05:45;;;;;;;10.80;3.43;;;9.60;99.90;;;;;;5074395;28;20878;-66
2022/02/26 12:08:12;;;;;;;6.60;3.63;;;9.70;99.90;;;;;;5075273;28;20558;-67
2022/02/26 12:10:51;;;;;;;5.13;2.60;;;9.90;99.90;;;;;;5070910;28;20461;-66
2022/02/26 12:13:46;;;;;;;7.27;3.40;;;10.40;99.20;;;;;;5073930;28;20921;-65
2022/02/26 12:16:22;;;;;;;8.93;3.13;;;10.60;98.10;;;;;;5071796;28;20483;-66
2022/02/26 12:18:59;;;;;;;7.83;3.37;;;11.50;96.60;;;;;;5073432;28;20440;-66
2022/02/26 12:21:32;;;;;;;3.10;2.53;;;12.60;94.10;;;;;;5072452;28;20445;-66
2022/02/26 12:24:18;;;;;;;5.03;3.27;;;13.60;89.80;;;;;;5062006;28;20830;-66
2022/02/26 12:26:47;;;;;;;6.70;3.30;;;14.40;82.10;;;;;;5071495;28;20864;-66
2022/02/26 12:29:29;;;;;;;7.23;3.20;;;15.40;75.50;;;;;;5071567;28;20469;-66
2022/02/26 12:31:58;;;;;;;8.03;3.60;;;16.40;70.90;;;;;;5074906;28;20532;-66
2022/02/26 12:34:51;;;;;;;9.10;3.70;;;16.50;64.80;;;;;;5069449;28;20531;-67
2022/02/26 12:37:25;;;;;;;6.33;3.10;;;16.50;63.30;;;;;;5062928;28;20796;-66
2022/02/26 12:39:53;;;;;;;10.07;3.80;;;17.20;59.70;;;;;;5072985;28;20542;-67
2022/02/26 12:42:24;;;;;;;6.60;3.50;;;16.70;58.00;;;;;;5077165;28;20437;-67
2022/02/26 12:44:52;;;;;;;8.57;4.13;;;17.00;59.40;;;;;;5075131;28;20450;-66
2022/02/26 12:47:19;;;;;;;9.20;4.17;;;17.40;59.30;;;;;;5073575;28;20459;-67